Terminal Aerodrome Forecast
Issued by NWS Grand Forks, ND

Home | Current Version | Previous Version | Text Only | Print | Product List | Glossary Off
Versions: 1 2 3 4 5 6 7 8 9 10 11 12 13 14 15

000
FTUS43 KFGF 191738
TAFGFK
TAF
KGFK 191738Z 1918/2018 01013KT P6SM SCT100 BKN200
     FM200100 36009KT P6SM BKN050
     FM200500 35010KT 3SM -SN BKN020 OVC030
     FM201100 34011KT 1SM -SN BKN015 OVC025=

USA.gov is the U.S. government's official web portal to all federal, state and local government web resources and services.